createdAt,value
2022-11-05T00:00:18.821Z,100447.97
2022-11-05T00:02:44.962Z,100448.03
2022-11-05T00:05:11.086Z,100451.66
2022-11-05T00:07:37.230Z,100455.22
2022-11-05T00:10:03.342Z,100458.69
2022-11-05T00:12:29.497Z,100451.72
2022-11-05T00:14:55.615Z,100456.00
2022-11-05T00:17:21.752Z,100452.53
2022-11-05T00:19:47.877Z,100453.31
2022-11-05T00:22:14.022Z,100453.41
2022-11-05T00:24:40.145Z,100456.78
2022-11-05T00:27:06.266Z,100464.91
2022-11-05T00:29:32.399Z,100470.00
2022-11-05T00:31:58.528Z,100469.31
2022-11-05T00:34:24.666Z,100470.84
2022-11-05T00:36:50.790Z,100471.63
2022-11-05T00:39:16.958Z,100465.78
2022-11-05T00:41:43.075Z,100480.69
2022-11-05T00:44:09.202Z,100476.19
2022-11-05T00:46:35.357Z,100478.00
2022-11-05T00:49:01.496Z,100485.81
2022-11-05T00:51:27.623Z,100484.22
2022-11-05T00:53:53.761Z,100492.78
2022-11-05T00:56:19.905Z,100498.84
2022-11-05T00:58:46.007Z,100500.56
2022-11-05T01:01:12.194Z,100503.09
2022-11-05T01:03:38.362Z,100511.88
2022-11-05T01:06:04.498Z,100500.66
2022-11-05T01:08:30.614Z,100509.34
2022-11-05T01:10:56.736Z,100518.06
2022-11-05T01:13:22.861Z,100512.78
2022-11-05T01:15:48.963Z,100510.25
2022-11-05T01:18:15.089Z,100518.91
2022-11-05T01:20:41.235Z,100511.09
2022-11-05T01:23:12.147Z,100515.25
2022-11-05T01:25:39.514Z,100521.34
2022-11-05T01:28:05.630Z,100519.63
2022-11-05T01:30:31.752Z,100525.53
2022-11-05T01:32:57.875Z,100524.75
2022-11-05T01:35:24.010Z,100524.75
2022-11-05T01:37:50.132Z,100535.19
2022-11-05T01:40:16.263Z,100535.25
2022-11-05T01:42:42.389Z,100532.72
2022-11-05T01:45:08.508Z,100530.16
2022-11-05T01:47:34.647Z,100543.25
2022-11-05T01:50:00.784Z,100535.59
2022-11-05T01:52:26.930Z,100543.34
2022-11-05T01:54:53.037Z,100544.22
2022-11-05T01:57:19.168Z,100552.00
2022-11-05T01:59:45.268Z,100545.94
2022-11-05T02:02:11.533Z,100548.47
2022-11-05T02:04:37.801Z,100545.88
2022-11-05T02:07:03.913Z,100555.44
2022-11-05T02:09:30.032Z,100552.00
2022-11-05T02:11:56.167Z,100558.03
2022-11-05T02:14:22.308Z,100554.53
2022-11-05T02:16:48.463Z,100559.75
2022-11-05T02:19:14.572Z,100564.97
2022-11-05T02:21:40.680Z,100562.41
2022-11-05T02:24:06.817Z,100560.56
2022-11-05T02:26:32.934Z,100563.25
2022-11-05T02:28:59.072Z,100566.78
2022-11-05T02:31:25.184Z,100565.03
2022-11-05T02:33:51.311Z,100574.66
2022-11-05T02:36:17.442Z,100576.41
2022-11-05T02:38:43.571Z,100572.94
2022-11-05T02:41:09.690Z,100578.16
2022-11-05T02:43:35.800Z,100576.53
2022-11-05T02:46:01.954Z,100583.34
2022-11-05T02:48:28.435Z,100579.78
2022-11-05T02:50:54.541Z,100585.06
2022-11-05T02:53:20.683Z,100585.06
2022-11-05T02:55:46.835Z,100591.16
2022-11-05T02:58:12.936Z,100587.75
2022-11-05T03:00:39.097Z,100581.81
2022-11-05T03:03:05.334Z,100581.69
2022-11-05T03:05:31.482Z,100582.53
2022-11-05T03:07:57.599Z,100592.88
2022-11-05T03:10:23.704Z,100597.25
2022-11-05T03:12:51.190Z,100591.31
2022-11-05T03:15:19.484Z,100597.31
2022-11-05T03:17:45.585Z,100596.56
2022-11-05T03:20:11.713Z,100600.88
2022-11-05T03:22:37.874Z,100607.84
2022-11-05T03:25:03.993Z,100603.53
2022-11-05T03:27:30.104Z,100618.41
2022-11-05T03:29:56.266Z,100613.28
2022-11-05T03:32:22.387Z,100615.13
2022-11-05T03:34:48.511Z,100615.19
2022-11-05T03:37:14.675Z,100621.34
2022-11-05T03:39:40.779Z,100620.34
2022-11-05T03:42:06.931Z,100622.28
2022-11-05T03:44:33.095Z,100625.63
2022-11-05T03:46:59.204Z,100627.50
2022-11-05T03:49:25.306Z,100629.28
2022-11-05T03:51:51.441Z,100636.19
2022-11-05T03:54:17.596Z,100631.09
2022-11-05T03:56:43.738Z,100637.31
2022-11-05T03:59:09.868Z,100640.78
2022-11-05T04:01:36.098Z,100645.09
2022-11-05T04:04:02.351Z,100651.00
2022-11-05T04:06:28.499Z,100652.19
2022-11-05T04:08:54.603Z,100662.47
2022-11-05T04:11:20.721Z,100658.13
2022-11-05T04:13:46.851Z,100664.28
2022-11-05T04:16:12.964Z,100658.06
2022-11-05T04:18:39.089Z,100663.38
2022-11-05T04:21:05.220Z,100670.41
2022-11-05T04:23:31.357Z,100665.97
2022-11-05T04:25:57.514Z,100666.94
2022-11-05T04:28:23.624Z,100668.81
2022-11-05T04:30:49.742Z,100673.09
2022-11-05T04:33:15.900Z,100669.00
2022-11-05T04:35:42.041Z,100669.22
2022-11-05T04:38:08.146Z,100673.59
2022-11-05T04:40:34.288Z,100671.88
2022-11-05T04:43:00.410Z,100681.47
2022-11-05T04:45:26.568Z,100683.22
2022-11-05T04:47:52.683Z,100688.47
2022-11-05T04:50:18.818Z,100677.38
2022-11-05T04:52:44.959Z,100680.84
2022-11-05T04:55:11.081Z,100688.69
2022-11-05T04:57:37.194Z,100682.66
2022-11-05T05:00:03.332Z,100686.16
2022-11-05T05:02:29.464Z,100687.88
2022-11-05T05:04:55.615Z,100695.81
2022-11-05T05:07:21.728Z,100695.13
2022-11-05T05:09:47.862Z,100694.44
2022-11-05T05:12:13.976Z,100704.72
2022-11-05T05:14:40.120Z,100698.09
2022-11-05T05:17:06.231Z,100706.84
2022-11-05T05:19:32.357Z,100709.44
2022-11-05T05:21:58.483Z,100712.97
2022-11-05T05:24:24.589Z,100712.09
2022-11-05T05:26:50.734Z,100720.88
2022-11-05T05:29:16.893Z,100718.41
2022-11-05T05:31:43.007Z,100724.47
2022-11-05T05:34:09.230Z,100733.19
2022-11-05T05:36:35.341Z,100735.97
2022-11-05T05:39:01.473Z,100735.06
2022-11-05T05:41:27.636Z,100739.50
2022-11-05T05:43:53.745Z,100743.91
2022-11-05T05:46:19.901Z,100745.78
2022-11-05T05:48:46.047Z,100744.84
2022-11-05T05:51:12.162Z,100743.16
2022-11-05T05:53:38.402Z,100756.16
2022-11-05T05:56:04.513Z,100760.53
2022-11-05T05:58:30.657Z,100763.78
2022-11-05T06:00:56.828Z,100771.69
2022-11-05T06:03:22.951Z,100767.38
2022-11-05T06:05:49.086Z,100773.56
2022-11-05T06:08:15.207Z,100778.75
2022-11-05T06:10:41.388Z,100776.09
2022-11-05T06:13:07.595Z,100780.66
2022-11-05T06:15:36.063Z,100782.34
2022-11-05T06:18:02.390Z,100778.16
2022-11-05T06:20:28.521Z,100784.41
2022-11-05T06:22:54.690Z,100790.41
2022-11-05T06:25:20.783Z,100792.38
2022-11-05T06:27:46.889Z,100792.41
2022-11-05T06:30:13.020Z,100800.19
2022-11-05T06:32:39.134Z,100818.50
2022-11-05T06:35:05.260Z,100815.06
2022-11-05T06:37:31.463Z,100816.75
2022-11-05T06:39:57.592Z,100821.91
2022-11-05T06:42:23.706Z,100828.78
2022-11-05T06:44:49.846Z,100836.41
2022-11-05T06:47:15.982Z,100833.72
2022-11-05T06:49:42.136Z,100846.59
2022-11-05T06:52:08.262Z,100840.47
2022-11-05T06:54:34.377Z,100844.66
2022-11-05T06:57:00.540Z,100848.97
2022-11-05T06:59:26.658Z,100858.41
2022-11-05T07:01:52.855Z,100855.75
2022-11-05T07:04:18.990Z,100853.97
2022-11-05T07:06:45.137Z,100862.66
2022-11-05T07:09:11.242Z,100863.44
2022-11-05T07:11:37.392Z,100872.75
2022-11-05T07:14:03.531Z,100885.72
2022-11-05T07:16:29.651Z,100875.34
2022-11-05T07:18:55.803Z,100888.38
2022-11-05T07:21:21.944Z,100883.97
2022-11-05T07:23:48.071Z,100896.03
2022-11-05T07:26:14.175Z,100891.66
2022-11-05T07:28:40.306Z,100900.22
2022-11-05T07:31:06.429Z,100905.25
2022-11-05T07:33:36.476Z,100908.94
2022-11-05T07:36:02.977Z,100897.88
2022-11-05T07:38:29.112Z,100915.66
2022-11-05T07:40:55.243Z,100915.59
2022-11-05T07:43:21.352Z,100911.22
2022-11-05T07:45:47.486Z,100916.25
2022-11-05T07:48:13.606Z,100923.13
2022-11-05T07:50:39.747Z,100926.44
2022-11-05T07:53:05.889Z,100926.38
2022-11-05T07:55:32.014Z,100929.72
2022-11-05T07:57:58.144Z,100928.00
2022-11-05T08:00:24.289Z,100936.59
2022-11-05T08:02:50.692Z,100941.59
2022-11-05T08:05:17.021Z,100948.59
2022-11-05T08:07:43.153Z,100943.22
2022-11-05T08:10:09.302Z,100955.31
2022-11-05T08:12:35.418Z,100948.03
2022-11-05T08:15:01.569Z,100951.25
2022-11-05T08:17:27.707Z,100957.06
2022-11-05T08:19:53.817Z,100959.56
2022-11-05T08:22:19.973Z,100960.47
2022-11-05T08:24:46.122Z,100963.94
2022-11-05T08:27:12.250Z,100957.16
2022-11-05T08:29:38.390Z,100963.34
2022-11-05T08:32:04.517Z,100972.69
2022-11-05T08:34:30.651Z,100980.50
2022-11-05T08:36:57.085Z,100983.94
2022-11-05T08:39:23.243Z,100989.09
2022-11-05T08:41:49.403Z,100980.50
2022-11-05T08:44:15.528Z,100979.56
2022-11-05T08:46:41.961Z,100982.91
2022-11-05T08:49:08.142Z,100978.38
2022-11-05T08:51:34.258Z,100980.94
2022-11-05T08:54:00.423Z,100986.16
2022-11-05T08:56:26.533Z,100992.78
2022-11-05T08:58:52.652Z,100997.03
2022-11-05T09:01:18.896Z,100989.72
2022-11-05T09:03:45.564Z,100991.28
2022-11-05T09:06:11.701Z,100959.44
2022-11-05T09:08:38.229Z,100988.78
2022-11-05T09:11:04.384Z,100994.56
2022-11-05T09:13:30.497Z,101002.91
2022-11-05T09:15:56.620Z,101004.34
2022-11-05T09:18:22.746Z,101011.34
2022-11-05T09:20:48.921Z,100999.69
2022-11-05T09:23:15.179Z,101005.72
2022-11-05T09:25:41.391Z,101001.25
2022-11-05T09:28:07.561Z,101004.78
2022-11-05T09:30:33.708Z,101007.09
2022-11-05T09:32:59.824Z,101010.63
2022-11-05T09:35:25.966Z,101011.47
2022-11-05T09:37:54.559Z,101004.03
2022-11-05T09:40:24.356Z,101002.84
2022-11-05T09:42:50.670Z,101000.19
2022-11-05T09:45:16.816Z,101009.63
2022-11-05T09:47:42.938Z,101017.00
2022-11-05T09:50:09.067Z,101020.97
2022-11-05T09:52:35.214Z,101026.13
2022-11-05T09:55:01.340Z,101023.69
2022-11-05T09:57:27.483Z,101025.22
2022-11-05T09:59:53.657Z,101030.28
2022-11-05T10:02:19.789Z,101029.47
2022-11-05T10:04:45.981Z,101027.31
2022-11-05T10:07:12.140Z,101041.03
2022-11-05T10:09:38.317Z,101037.41
2022-11-05T10:12:04.438Z,101044.09
2022-11-05T10:14:30.552Z,101040.53
2022-11-05T10:16:56.690Z,101041.22
2022-11-05T10:19:22.808Z,101046.44
2022-11-05T10:22:05.992Z,101046.19
2022-11-05T10:24:33.171Z,101049.22
2022-11-05T10:26:59.303Z,101044.41
2022-11-05T10:29:25.430Z,101040.19
2022-11-05T10:31:51.567Z,101049.44
2022-11-05T10:34:17.709Z,101054.31
2022-11-05T10:36:43.927Z,101046.03
2022-11-05T10:41:53.790Z,101054.00
2022-11-05T10:44:19.923Z,101051.31
2022-11-05T10:46:46.042Z,101054.00
2022-11-05T10:49:12.164Z,101051.50
2022-11-05T10:51:38.281Z,101050.28
2022-11-05T10:54:04.431Z,101059.88
2022-11-05T10:56:30.567Z,101058.84
2022-11-05T10:58:56.670Z,101052.72
2022-11-05T11:01:22.907Z,101053.28
2022-11-05T11:03:49.078Z,101054.97
2022-11-05T11:06:15.220Z,101057.72
2022-11-05T11:08:41.891Z,101058.97
2022-11-05T11:11:08.052Z,101056.50
2022-11-05T11:13:34.162Z,101050.19
2022-11-05T11:16:00.280Z,101053.38
2022-11-05T11:18:26.438Z,101058.00
2022-11-05T11:20:52.567Z,101059.88
2022-11-05T11:23:18.686Z,101059.88
2022-11-05T11:25:44.828Z,101056.06
2022-11-05T11:28:10.989Z,101056.53
2022-11-05T11:30:37.115Z,101053.78
2022-11-05T11:33:03.240Z,101047.69
2022-11-05T11:35:29.384Z,101044.25
2022-11-05T11:37:55.510Z,101047.91
2022-11-05T11:40:21.635Z,101048.97
2022-11-05T11:42:47.759Z,101044.88
2022-11-05T11:45:13.917Z,101043.97
2022-11-05T11:47:40.034Z,101031.94
2022-11-05T11:50:06.167Z,101039.44
2022-11-05T11:52:32.311Z,101024.34
2022-11-05T11:54:58.419Z,101032.59
2022-11-05T11:57:24.559Z,101034.22
2022-11-05T12:02:36.837Z,101041.25
2022-11-05T12:05:03.035Z,101039.56
2022-11-05T12:07:29.189Z,101042.13
2022-11-05T12:09:55.336Z,101040.91
2022-11-05T12:12:21.491Z,101042.91
2022-11-05T12:14:47.642Z,101037.28
2022-11-05T12:17:13.746Z,101046.72
2022-11-05T12:19:39.867Z,101042.28
2022-11-05T12:22:05.996Z,101045.56
2022-11-05T12:24:32.100Z,101040.81
2022-11-05T12:26:58.215Z,101037.78
2022-11-05T12:29:24.335Z,101044.00
2022-11-05T12:31:50.454Z,101037.13
2022-11-05T12:34:16.594Z,101034.28
2022-11-05T12:36:42.707Z,101031.44
2022-11-05T12:39:08.895Z,101030.28
2022-11-05T12:41:35.090Z,101036.59
2022-11-05T12:44:01.206Z,101025.09
2022-11-05T12:46:27.343Z,101027.34
2022-11-05T12:48:53.601Z,101026.66
2022-11-05T12:51:19.748Z,101026.31
2022-11-05T12:53:45.879Z,101021.66
2022-11-05T12:56:11.997Z,101026.06
2022-11-05T12:58:38.111Z,101025.19
2022-11-05T13:01:04.290Z,101016.50
2022-11-05T13:03:30.503Z,101026.81
2022-11-05T13:06:00.196Z,101023.38
2022-11-05T13:08:29.150Z,101028.94
2022-11-05T13:10:55.265Z,101033.53
2022-11-05T13:13:21.404Z,101036.16
2022-11-05T13:15:47.538Z,101041.56
2022-11-05T13:18:13.663Z,101049.66
2022-11-05T13:20:39.827Z,101043.38
2022-11-05T13:23:05.960Z,101043.03
2022-11-05T13:25:32.130Z,101035.94
2022-11-05T13:27:58.266Z,101038.94
2022-11-05T13:30:24.441Z,101033.28
2022-11-05T13:32:50.557Z,101028.94
2022-11-05T13:35:16.662Z,101031.31
2022-11-05T13:37:42.814Z,101029.81
2022-11-05T13:40:10.584Z,101030.94
2022-11-05T13:42:44.128Z,101033.84
2022-11-05T13:45:10.315Z,101029.94
2022-11-05T13:47:38.033Z,101038.63
2022-11-05T13:50:04.301Z,101033.03
2022-11-05T13:52:30.461Z,101042.84
2022-11-05T13:54:56.585Z,101051.19
2022-11-05T13:57:22.741Z,101054.91
2022-11-05T13:59:48.848Z,101053.47
2022-11-05T14:02:15.116Z,101048.03
2022-11-05T14:04:41.360Z,101050.69
2022-11-05T14:07:07.495Z,101058.50
2022-11-05T14:09:33.646Z,101057.78
2022-11-05T14:11:59.758Z,101056.13
2022-11-05T14:14:25.924Z,101059.09
2022-11-05T14:16:52.037Z,101061.53
2022-11-05T14:19:18.198Z,101060.19
2022-11-05T14:21:44.311Z,101055.47
2022-11-05T14:24:10.468Z,101050.75
2022-11-05T14:26:36.583Z,101057.94
2022-11-05T14:29:02.750Z,101068.63
2022-11-05T14:31:47.269Z,101064.16
2022-11-05T14:36:58.728Z,101059.56
2022-11-05T14:39:24.841Z,101061.47
2022-11-05T14:41:50.981Z,101059.81
2022-11-05T14:44:17.120Z,101056.25
2022-11-05T14:46:43.250Z,101061.56
2022-11-05T14:49:09.845Z,101060.13
2022-11-05T14:51:36.125Z,101066.28
2022-11-05T14:54:02.243Z,101069.91
2022-11-05T14:56:28.371Z,101063.22
2022-11-05T14:58:54.514Z,101068.44
2022-11-05T15:01:20.695Z,101079.16
2022-11-05T15:03:47.532Z,101078.81
2022-11-05T15:06:13.750Z,101075.63
2022-11-05T15:08:39.900Z,101086.13
2022-11-05T15:11:06.063Z,101081.28
2022-11-05T15:13:32.183Z,101079.59
2022-11-05T15:15:58.307Z,101076.25
2022-11-05T15:18:24.479Z,101075.63
2022-11-05T15:20:50.626Z,101073.38
2022-11-05T15:23:16.743Z,101077.91
2022-11-05T15:25:42.878Z,101084.50
2022-11-05T15:28:09.011Z,101083.09
2022-11-05T15:30:35.157Z,101098.91
2022-11-05T15:33:01.314Z,101098.41
2022-11-05T15:35:27.458Z,101097.00
2022-11-05T15:37:58.806Z,101094.78
2022-11-05T15:40:27.747Z,101093.25
2022-11-05T15:42:53.863Z,101098.81
2022-11-05T15:45:19.988Z,101097.84
2022-11-05T15:47:46.143Z,101096.34
2022-11-05T15:50:14.705Z,101093.28
2022-11-05T15:52:41.207Z,101099.63
2022-11-05T15:55:07.349Z,101096.38
2022-11-05T15:57:33.471Z,101094.22
2022-11-05T15:59:59.625Z,101100.75
2022-11-05T16:02:25.807Z,101103.59
2022-11-05T16:04:52.034Z,101098.75
2022-11-05T16:07:18.193Z,101107.59
2022-11-05T16:09:44.336Z,101101.72
2022-11-05T16:12:10.449Z,101105.44
2022-11-05T16:14:36.593Z,101101.22
2022-11-05T16:17:02.739Z,101109.06
2022-11-05T16:19:28.884Z,101108.31
2022-11-05T16:21:55.037Z,101114.53
2022-11-05T16:24:25.229Z,101112.94
2022-11-05T16:27:03.032Z,101116.53
2022-11-05T16:29:29.752Z,101125.38
2022-11-05T16:31:55.902Z,101118.63
2022-11-05T16:34:22.059Z,101111.75
2022-11-05T16:36:48.201Z,101120.59
2022-11-05T16:39:14.344Z,101121.56
2022-11-05T16:41:40.507Z,101126.84
2022-11-05T16:44:06.622Z,101120.84
2022-11-05T16:46:32.745Z,101122.63
2022-11-05T16:48:58.906Z,101122.56
2022-11-05T16:51:27.492Z,101132.09
2022-11-05T16:53:53.825Z,101134.81
2022-11-05T16:56:19.953Z,101140.25
2022-11-05T16:58:46.107Z,101142.94
2022-11-05T17:01:12.276Z,101135.28
2022-11-05T17:03:38.431Z,101132.81
2022-11-05T17:06:04.588Z,101129.41
2022-11-05T17:08:30.821Z,101139.03
2022-11-05T17:10:56.946Z,101145.16
2022-11-05T17:13:23.081Z,101156.44
2022-11-05T17:15:49.220Z,101159.19
2022-11-05T17:18:18.858Z,101154.16
2022-11-05T17:20:46.763Z,101166.38
2022-11-05T17:23:13.200Z,101177.75
2022-11-05T17:25:39.733Z,101178.00
2022-11-05T17:28:05.952Z,101180.66
2022-11-05T17:30:32.173Z,101188.53
2022-11-05T17:32:58.351Z,101192.97
2022-11-05T17:35:24.569Z,101198.34
2022-11-05T17:37:50.704Z,101191.59
2022-11-05T17:40:16.822Z,101195.03
2022-11-05T17:42:42.933Z,101190.00
2022-11-05T17:45:09.060Z,101196.19
2022-11-05T17:47:35.291Z,101193.75
2022-11-05T17:50:01.478Z,101186.06
2022-11-05T17:52:27.629Z,101191.31
2022-11-05T17:54:53.796Z,101204.41
2022-11-05T17:57:19.935Z,101199.25
2022-11-05T17:59:46.039Z,101201.94
2022-11-05T18:02:12.320Z,101206.34
2022-11-05T18:04:38.519Z,101202.06
2022-11-05T18:07:04.646Z,101190.00
2022-11-05T18:09:30.780Z,101193.59
2022-11-05T18:11:56.937Z,101204.88
2022-11-05T18:14:24.277Z,101209.25
2022-11-05T18:16:50.529Z,101216.19
2022-11-05T18:19:16.670Z,101216.16
2022-11-05T18:21:42.795Z,101212.00
2022-11-05T18:24:08.937Z,101212.84
2022-11-05T18:26:35.085Z,101213.78
2022-11-05T18:29:01.270Z,101213.88
2022-11-05T18:31:27.393Z,101211.31
2022-11-05T18:33:53.512Z,101217.31
2022-11-05T18:36:19.629Z,101212.19
2022-11-05T18:38:45.774Z,101212.94
2022-11-05T18:41:11.914Z,101210.41
2022-11-05T18:43:38.025Z,101219.06
2022-11-05T18:46:06.896Z,101212.13
2022-11-05T18:48:33.024Z,101201.06
2022-11-05T18:51:01.863Z,101211.25
2022-11-05T18:53:28.343Z,101210.38
2022-11-05T18:55:54.456Z,101211.19
2022-11-05T18:58:20.628Z,101219.06
2022-11-05T19:00:46.769Z,101217.41
2022-11-05T19:03:12.912Z,101219.19
2022-11-05T19:05:39.058Z,101213.19
2022-11-05T19:08:05.185Z,101216.69
2022-11-05T19:10:31.310Z,101214.13
2022-11-05T19:12:57.465Z,101214.16
2022-11-05T19:15:23.609Z,101208.16
2022-11-05T19:17:49.756Z,101215.03
2022-11-05T19:20:15.887Z,101210.69
2022-11-05T19:22:42.041Z,101214.16
2022-11-05T19:25:08.165Z,101213.28
2022-11-05T19:27:34.548Z,101217.50
2022-11-05T19:30:00.694Z,101215.78
2022-11-05T19:32:26.819Z,101225.25
2022-11-05T19:34:52.981Z,101223.50
2022-11-05T19:37:19.141Z,101217.38
2022-11-05T19:39:45.280Z,101223.44
2022-11-05T19:42:11.408Z,101219.13
2022-11-05T19:44:37.567Z,101225.19
2022-11-05T19:47:03.696Z,101219.09
2022-11-05T19:49:29.838Z,101220.88
2022-11-05T19:51:55.946Z,101225.16
2022-11-05T19:54:22.132Z,101205.47
2022-11-05T19:56:48.265Z,101220.84
2022-11-05T19:59:14.410Z,101223.44
2022-11-05T20:01:40.584Z,101226.06
2022-11-05T20:04:06.837Z,101225.28
2022-11-05T20:06:33.046Z,101222.84
2022-11-05T20:09:20.581Z,101228.09
2022-11-05T20:11:45.305Z,101226.34
2022-11-05T20:14:11.434Z,101216.06
2022-11-05T20:16:37.590Z,101222.13
2022-11-05T20:19:03.708Z,101224.75
2022-11-05T20:21:29.832Z,101225.59
2022-11-05T20:23:56.003Z,101225.69
2022-11-05T20:26:22.114Z,101223.91
2022-11-05T20:28:48.266Z,101227.38
2022-11-05T20:31:14.385Z,101216.16
2022-11-05T20:33:40.542Z,101223.13
2022-11-05T20:36:06.660Z,101224.84
2022-11-05T20:38:32.782Z,101225.69
2022-11-05T20:40:58.942Z,101228.25
2022-11-05T20:43:30.142Z,101232.56
2022-11-05T20:45:56.729Z,101233.41
2022-11-05T20:48:22.839Z,101228.28
2022-11-05T20:50:48.980Z,101227.44
2022-11-05T20:53:15.164Z,101226.59
2022-11-05T20:55:41.289Z,101223.19
2022-11-05T20:58:07.438Z,101225.78
2022-11-05T21:00:33.574Z,101227.50
2022-11-05T21:02:59.749Z,101224.09
2022-11-05T21:05:28.891Z,101227.59
2022-11-05T21:07:57.440Z,101224.09
2022-11-05T21:10:23.581Z,101230.16
2022-11-05T21:12:49.705Z,101224.16
2022-11-05T21:15:15.832Z,101223.34
2022-11-05T21:17:41.973Z,101231.13
2022-11-05T21:20:08.110Z,101231.09
2022-11-05T21:22:34.224Z,101235.47
2022-11-05T21:25:00.440Z,101232.03
2022-11-05T21:27:26.557Z,101227.78
2022-11-05T21:29:52.677Z,101220.91
2022-11-05T21:32:18.831Z,101224.38
2022-11-05T21:34:44.968Z,101214.91
2022-11-05T21:37:11.079Z,101213.22
2022-11-05T21:39:37.202Z,101215.88
2022-11-05T21:42:03.346Z,101211.63
2022-11-05T21:44:29.464Z,101215.91
2022-11-05T21:46:55.619Z,101221.09
2022-11-05T21:49:21.753Z,101220.28
2022-11-05T21:51:47.882Z,101218.53
2022-11-05T21:54:14.003Z,101214.25
2022-11-05T21:56:40.140Z,101215.16
2022-11-05T21:59:06.261Z,101212.53
2022-11-05T22:01:32.499Z,101218.56
2022-11-05T22:04:02.869Z,101218.50
2022-11-05T22:06:29.476Z,101209.00
2022-11-05T22:08:55.609Z,101210.69
2022-11-05T22:11:21.721Z,101212.38
2022-11-05T22:13:47.893Z,101213.22
2022-11-05T22:16:14.022Z,101220.09
2022-11-05T22:18:40.172Z,101215.78
2022-11-05T22:21:06.297Z,101220.94
2022-11-05T22:23:32.424Z,101214.03
2022-11-05T22:25:58.570Z,101223.47
2022-11-05T22:28:24.707Z,101226.97
2022-11-05T22:30:50.833Z,101223.47
2022-11-05T22:33:16.997Z,101222.56
2022-11-05T22:35:43.262Z,101226.00
2022-11-05T22:38:09.692Z,101222.59
2022-11-05T22:40:35.948Z,101224.34
2022-11-05T22:43:02.058Z,101220.00
2022-11-05T22:45:28.395Z,101230.34
2022-11-05T22:47:54.598Z,101214.03
2022-11-05T22:50:20.739Z,101205.47
2022-11-05T22:52:46.881Z,101211.53
2022-11-05T22:55:12.991Z,101209.84
2022-11-05T22:57:39.153Z,101210.72
2022-11-05T23:00:05.288Z,101208.16
2022-11-05T23:02:31.486Z,101202.19
2022-11-05T23:04:57.720Z,101213.41
2022-11-05T23:07:27.666Z,101203.06
2022-11-05T23:09:54.231Z,101207.31
2022-11-05T23:12:20.372Z,101215.16
2022-11-05T23:14:46.490Z,101206.56
2022-11-05T23:17:12.626Z,101204.88
2022-11-05T23:19:38.788Z,101210.91
2022-11-05T23:22:04.897Z,101206.69
2022-11-05T23:24:31.030Z,101206.66
2022-11-05T23:26:57.189Z,101205.00
2022-11-05T23:29:23.291Z,101202.50
2022-11-05T23:31:49.407Z,101203.34
2022-11-05T23:34:15.545Z,101191.34
2022-11-05T23:36:41.682Z,101193.06
2022-11-05T23:39:07.814Z,101188.78
2022-11-05T23:41:33.988Z,101179.31
2022-11-05T23:44:00.114Z,101180.16
2022-11-05T23:46:26.245Z,101184.47
2022-11-05T23:48:52.406Z,101183.59
2022-11-05T23:51:18.517Z,101188.81
2022-11-05T23:53:44.646Z,101182.00
2022-11-05T23:56:10.793Z,101185.44
2022-11-05T23:58:36.913Z,101186.34
